Time;durP1;ratioP1;P1;durP2;ratioP2;P2;SDS_P1;SDS_P2;PMS_P1;PMS_P2;Temp;Humidity;BMP_temperature;BMP_pressure;BME280_temperature;BME280_humidity;BME280_pressure;Samples;Min_cycle;Max_cycle;Signal;HPM_P1;HPM_P2
2021/11/06 00:01:04;;;;;;;4.83;4.13;;;15.90;99.90;;;16.48;53.95;102434.94;4987124;27;97069;-45
2021/11/06 00:03:30;;;;;;;4.20;3.80;;;15.80;99.90;;;16.43;54.04;102434.22;5017939;27;96934;-48
2021/11/06 00:05:56;;;;;;;4.70;3.40;;;15.70;99.90;;;16.41;54.36;102430.75;4995063;27;97154;-47
2021/11/06 00:08:22;;;;;;;4.90;3.87;;;15.70;99.90;;;16.40;54.10;102426.34;5024285;27;98496;-44
2021/11/06 00:10:48;;;;;;;5.40;4.27;;;15.70;99.90;;;16.42;54.19;102427.16;4991063;28;97223;-44
2021/11/06 00:13:14;;;;;;;3.80;3.20;;;15.80;99.90;;;16.43;54.40;102423.56;4991119;28;96957;-47
2021/11/06 00:15:40;;;;;;;5.57;4.07;;;15.80;99.90;;;16.44;54.44;102433.31;4993779;27;97251;-47
2021/11/06 00:18:06;;;;;;;5.17;4.00;;;15.80;99.90;;;16.46;54.03;102418.13;4985084;27;102750;-46
2021/11/06 00:20:32;;;;;;;4.73;3.83;;;15.80;99.90;;;16.49;54.14;102423.34;4993531;27;97066;-49
2021/11/06 00:22:58;;;;;;;4.60;3.90;;;15.90;99.90;;;16.47;54.22;102431.41;4988519;28;97301;-44
2021/11/06 00:25:24;;;;;;;3.97;3.40;;;15.80;99.90;;;16.48;54.29;102426.94;4992008;28;100019;-46
2021/11/06 00:27:51;;;;;;;4.40;4.00;;;15.80;99.90;;;16.50;54.20;102430.47;4987904;28;97193;-43
2021/11/06 00:30:17;;;;;;;4.23;3.50;;;15.80;99.90;;;16.48;53.95;102438.47;4993792;28;98039;-46
2021/11/06 00:32:44;;;;;;;4.93;3.27;;;15.80;99.90;;;16.44;54.01;102430.63;4988135;28;98862;-47
2021/11/06 00:35:11;;;;;;;4.10;3.37;;;15.70;99.90;;;16.43;54.41;102434.22;5010020;27;102787;-47
2021/11/06 00:37:39;;;;;;;4.30;3.73;;;15.70;99.90;;;16.44;54.32;102430.63;4988521;28;97238;-44
2021/11/06 00:40:07;;;;;;;3.93;3.50;;;15.80;99.90;;;16.44;54.06;102441.28;4989013;28;97108;-47
2021/11/06 00:42:34;;;;;;;4.23;3.33;;;15.80;99.90;;;16.44;54.17;102446.63;4993473;27;97244;-44
2021/11/06 00:44:59;;;;;;;4.10;3.70;;;15.80;99.90;;;16.44;54.25;102442.16;4996797;28;97325;-44
2021/11/06 00:47:25;;;;;;;4.23;3.60;;;15.80;99.90;;;16.43;54.13;102436.88;4987699;28;100339;-45
2021/11/06 00:49:51;;;;;;;4.70;3.47;;;15.70;99.90;;;16.43;54.06;102436.88;4989606;27;96744;-46
2021/11/06 00:52:17;;;;;;;3.73;3.20;;;15.80;99.90;;;16.39;53.97;102436.13;4993255;27;97477;-44
2021/11/06 00:54:42;;;;;;;4.27;3.37;;;15.70;99.90;;;16.41;54.16;102436.94;4995319;27;100480;-50
2021/11/06 00:57:08;;;;;;;4.50;3.43;;;15.80;99.90;;;16.45;54.17;102445.69;5007802;27;103822;-43
2021/11/06 00:59:34;;;;;;;4.37;3.00;;;15.80;99.90;;;16.47;53.81;102443.84;4998171;27;97279;-45
2021/11/06 01:02:02;;;;;;;4.57;3.53;;;15.90;99.90;;;16.46;53.94;102450.09;5005251;27;99389;-47
2021/11/06 01:04:28;;;;;;;5.83;3.40;;;15.80;99.90;;;16.40;53.87;102444.97;4994867;27;99756;-47
2021/11/06 01:06:53;;;;;;;5.20;3.53;;;15.70;99.90;;;16.41;53.86;102452.06;5004674;27;97362;-44
2021/11/06 01:09:19;;;;;;;3.47;3.17;;;15.80;99.90;;;16.41;53.93;102447.59;5001704;28;97009;-44
2021/11/06 01:11:45;;;;;;;4.23;3.13;;;15.80;99.90;;;16.43;53.59;102451.06;5004957;27;96860;-44
2021/11/06 01:14:12;;;;;;;3.43;3.10;;;15.80;99.90;;;16.45;53.61;102453.69;5002499;27;100180;-44
2021/11/06 01:16:38;;;;;;;3.47;3.17;;;15.90;99.90;;;16.45;53.52;102453.69;4994565;27;99074;-45
2021/11/06 01:19:04;;;;;;;3.63;3.00;;;15.90;99.90;;;16.44;53.56;102452.81;5007132;27;97231;-48
2021/11/06 01:21:30;;;;;;;4.23;3.07;;;15.80;99.90;;;16.45;53.58;102448.34;4995650;28;96977;-44
2021/11/06 01:23:56;;;;;;;3.43;3.13;;;15.90;99.90;;;16.46;53.55;102455.44;5004396;27;97093;-48
2021/11/06 01:26:23;;;;;;;3.30;3.00;;;15.90;99.90;;;16.47;53.52;102457.16;4995848;27;99430;-46
2021/11/06 01:28:49;;;;;;;3.40;2.97;;;15.90;99.90;;;16.47;53.83;102457.16;4999969;27;96889;-47
2021/11/06 01:31:15;;;;;;;3.97;3.53;;;15.90;99.90;;;16.49;53.77;102455.31;5000496;28;97614;-45
2021/11/06 01:33:41;;;;;;;3.93;3.10;;;15.90;99.90;;;16.48;53.46;102458.91;4995738;28;100387;-43
2021/11/06 01:36:07;;;;;;;3.67;3.37;;;15.90;99.90;;;16.48;53.72;102458.91;4995415;27;99608;-46
2021/11/06 01:38:33;;;;;;;4.20;3.80;;;15.90;99.90;;;16.47;53.70;102452.72;5015069;27;97591;-46
2021/11/06 01:40:59;;;;;;;4.80;3.43;;;15.90;99.90;;;16.42;53.68;102460.00;4999593;27;97193;-45
2021/11/06 01:43:26;;;;;;;4.03;3.30;;;15.70;99.90;;;16.42;53.60;102454.66;5027230;27;98850;-44
2021/11/06 01:46:02;;;;;;;4.37;3.43;;;15.80;99.90;;;16.41;53.87;102460.91;4996025;27;100498;-44
2021/11/06 01:48:28;;;;;;;3.33;2.90;;;15.80;99.90;;;16.41;53.94;102452.91;4999797;28;97306;-47
2021/11/06 01:50:56;;;;;;;4.53;3.70;;;15.80;99.90;;;16.45;53.60;102454.56;4999300;27;97530;-44
2021/11/06 01:53:22;;;;;;;3.50;3.20;;;15.80;99.90;;;16.45;53.89;102448.34;5011564;27;99677;-45
2021/11/06 01:55:52;;;;;;;4.83;3.37;;;15.80;99.90;;;16.48;53.93;102448.25;4995236;27;98100;-46
2021/11/06 01:58:23;;;;;;;4.57;3.63;;;15.80;99.90;;;16.48;53.78;102448.25;4993662;27;96900;-47
2021/11/06 02:00:50;;;;;;;4.87;3.70;;;15.90;99.90;;;16.48;53.84;102442.94;5010782;27;96919;-45
2021/11/06 02:03:17;;;;;;;4.30;3.50;;;15.80;99.90;;;16.48;53.72;102445.59;5011055;27;100370;-44
2021/11/06 02:05:43;;;;;;;4.50;3.40;;;15.80;99.90;;;16.47;53.76;102446.50;5028164;27;97331;-46
2021/11/06 02:08:13;;;;;;;5.87;3.70;;;15.80;99.90;;;16.49;53.58;102450.00;4997052;27;98608;-44
2021/11/06 02:10:41;;;;;;;4.47;3.43;;;15.90;99.90;;;16.49;53.55;102450.00;4978904;28;99132;-44
2021/11/06 02:13:08;;;;;;;5.47;4.40;;;15.90;99.90;;;16.48;53.46;102445.59;5002475;27;99975;-44
2021/11/06 02:15:35;;;;;;;5.67;3.93;;;15.80;99.90;;;16.48;53.63;102445.59;4990841;28;96760;-44
2021/11/06 02:18:00;;;;;;;4.27;3.77;;;15.80;99.90;;;16.47;53.43;102452.72;5000417;28;97563;-44
2021/11/06 02:20:26;;;;;;;4.40;4.00;;;15.80;99.90;;;16.49;53.35;102456.22;5016454;27;96999;-44
2021/11/06 02:22:53;;;;;;;3.83;3.43;;;15.90;99.90;;;16.50;53.28;102454.44;5001662;27;97818;-44
2021/11/06 02:25:19;;;;;;;4.00;3.40;;;15.90;99.90;;;16.52;53.15;102457.91;5006072;28;98596;-46
2021/11/06 02:27:46;;;;;;;3.60;3.30;;;15.90;99.90;;;16.54;53.40;102454.28;4994858;27;98169;-48
2021/11/06 02:30:16;;;;;;;4.70;3.87;;;16.00;99.90;;;16.56;53.25;102457.75;5007034;28;97241;-46
2021/11/06 02:32:43;;;;;;;4.80;3.90;;;16.00;99.90;;;16.56;53.10;102446.22;4992622;27;96873;-45
2021/11/06 02:35:09;;;;;;;4.73;3.77;;;16.00;99.90;;;16.55;53.09;102455.16;5005881;27;102889;-44
2021/11/06 02:37:35;;;;;;;3.77;3.37;;;15.90;99.90;;;16.55;53.18;102455.16;4993661;27;98139;-45
2021/11/06 02:40:04;;;;;;;4.47;3.97;;;15.90;99.90;;;16.54;53.01;102448.94;4994656;28;98218;-43
2021/11/06 02:42:29;;;;;;;5.33;4.03;;;16.00;99.90;;;16.53;53.04;102443.66;4989938;28;99487;-48
2021/11/06 02:44:56;;;;;;;5.17;3.90;;;15.90;99.90;;;16.49;53.09;102445.56;5000330;27;97050;-45
2021/11/06 02:47:22;;;;;;;5.50;3.70;;;15.90;99.90;;;16.47;53.03;102451.84;5003733;27;97573;-45
2021/11/06 02:49:48;;;;;;;5.80;4.67;;;15.80;99.90;;;16.44;52.96;102451.94;5009961;27;97571;-45
2021/11/06 02:52:14;;;;;;;3.93;3.50;;;15.80;99.90;;;16.40;53.37;102460.97;5004832;28;98895;-44
2021/11/06 02:54:40;;;;;;;7.03;4.93;;;15.80;99.90;;;16.35;53.26;102459.31;5024720;27;96798;-45
2021/11/06 02:57:10;;;;;;;4.77;4.27;;;15.70;99.70;;;16.30;53.36;102461.25;4996482;28;96963;-46
2021/11/06 02:59:36;;;;;;;4.80;3.73;;;15.60;99.90;;;16.28;53.38;102452.44;5011198;27;96916;-46
2021/11/06 03:02:02;;;;;;;3.87;3.57;;;15.60;99.90;;;16.27;53.77;102456.00;5005546;27;97588;-45
2021/11/06 03:04:35;;;;;;;6.77;4.07;;;15.60;99.90;;;16.28;53.51;102456.88;4994704;28;97444;-48
2021/11/06 03:07:01;;;;;;;4.47;4.07;;;15.60;99.90;;;16.26;53.77;102454.28;4990739;27;103655;-45
2021/11/06 03:09:27;;;;;;;5.37;3.43;;;15.60;99.90;;;16.25;53.67;102452.53;4994994;27;97354;-48
2021/11/06 03:11:54;;;;;;;5.17;4.23;;;15.60;99.90;;;16.25;53.39;102452.53;4990685;28;99485;-45
2021/11/06 03:14:22;;;;;;;9.10;5.93;;;15.60;99.90;;;16.24;53.37;102449.91;5004148;28;98229;-45
2021/11/06 03:16:48;;;;;;;5.20;4.10;;;15.60;99.90;;;16.23;53.75;102443.72;4976089;28;97289;-48
2021/11/06 03:19:14;;;;;;;6.20;3.67;;;15.50;99.90;;;16.22;53.74;102452.63;4996870;28;97620;-44
2021/11/06 03:21:40;;;;;;;5.00;3.97;;;15.50;99.90;;;16.22;53.83;102452.63;4995046;27;98813;-44
2021/11/06 03:24:07;;;;;;;5.90;3.97;;;15.60;99.90;;;16.21;53.58;102440.25;4995104;27;96828;-45
2021/11/06 03:26:33;;;;;;;5.53;4.00;;;15.60;99.90;;;16.21;53.44;102445.56;4991199;27;97485;-46
2021/11/06 03:28:59;;;;;;;3.50;3.20;;;15.60;99.90;;;16.21;53.53;102444.69;4995855;27;99137;-43
2021/11/06 03:31:25;;;;;;;5.73;3.83;;;15.50;99.90;;;16.21;53.69;102445.56;4990586;28;97690;-47
2021/11/06 03:33:51;;;;;;;4.63;3.60;;;15.50;99.90;;;16.22;53.66;102451.75;4989001;27;97219;-44
2021/11/06 03:36:18;;;;;;;4.30;3.63;;;15.50;99.90;;;16.18;53.80;102450.97;5000340;27;97143;-46
2021/11/06 03:38:44;;;;;;;5.00;3.73;;;15.50;99.90;;;16.17;53.92;102441.22;4990937;27;97349;-49
2021/11/06 03:41:10;;;;;;;4.27;3.70;;;15.40;99.90;;;16.14;54.15;102449.31;5023419;27;102936;-45
2021/11/06 03:43:37;;;;;;;3.93;3.50;;;15.40;99.90;;;16.15;53.78;102445.72;4996716;28;99976;-44
2021/11/06 03:46:03;;;;;;;3.87;3.40;;;15.40;99.90;;;16.14;53.77;102449.31;4996405;27;96918;-44
2021/11/06 03:48:29;;;;;;;4.17;3.70;;;15.40;99.90;;;16.12;53.88;102445.84;4994798;27;97309;-44
2021/11/06 03:50:56;;;;;;;3.80;3.37;;;15.30;99.90;;;16.12;54.11;102450.28;5000804;27;97551;-44
2021/11/06 03:53:22;;;;;;;5.03;3.70;;;15.40;99.90;;;16.10;54.07;102450.34;4993884;28;97073;-45
2021/11/06 03:55:48;;;;;;;5.37;3.40;;;15.30;99.90;;;16.11;53.63;102449.41;4990502;27;97663;-45
2021/11/06 03:58:14;;;;;;;5.33;4.43;;;15.30;99.90;;;16.12;53.56;102453.81;5003236;27;97559;-43
2021/11/06 04:00:39;;;;;;;4.63;3.60;;;15.30;99.90;;;16.09;53.76;102456.59;4994864;28;100719;-45
2021/11/06 04:03:05;;;;;;;4.03;3.40;;;15.30;99.90;;;16.10;53.77;102455.66;5003388;27;112140;-44
2021/11/06 04:05:31;;;;;;;3.87;3.17;;;15.40;99.90;;;16.12;53.94;102456.50;4992640;28;97344;-50
2021/11/06 04:07:57;;;;;;;4.73;3.60;;;15.40;99.90;;;16.17;53.60;102454.53;4993283;28;97638;-44
2021/11/06 04:10:23;;;;;;;4.27;3.30;;;15.60;99.90;;;16.21;53.62;102466.88;4995514;27;112006;-44
2021/11/06 04:12:48;;;;;;;5.43;4.10;;;15.60;99.90;;;16.21;53.48;102461.53;4990925;27;99040;-45
2021/11/06 04:15:15;;;;;;;4.30;3.57;;;15.60;99.90;;;16.22;53.52;102463.28;5007498;28;98272;-45
2021/11/06 04:17:41;;;;;;;4.07;3.40;;;15.60;99.90;;;16.21;53.24;102461.53;4992723;28;97033;-44
2021/11/06 04:20:08;;;;;;;4.00;3.37;;;15.60;99.90;;;16.23;53.22;102459.69;5018791;27;98579;-47
2021/11/06 04:22:35;;;;;;;4.57;3.27;;;15.60;99.90;;;16.24;53.41;102468.56;4997852;27;97305;-44
2021/11/06 04:25:03;;;;;;;3.63;2.90;;;15.60;99.90;;;16.24;53.31;102465.91;5017130;27;96741;-46
2021/11/06 04:27:29;;;;;;;4.10;3.13;;;15.60;99.90;;;16.21;53.27;102464.22;4996934;28;96979;-46
2021/11/06 04:29:55;;;;;;;5.10;3.50;;;15.60;99.90;;;16.20;53.18;102465.13;4986475;27;100494;-45
2021/11/06 04:32:22;;;;;;;4.03;3.47;;;15.60;99.90;;;16.21;53.15;102472.19;4994527;27;96771;-44
2021/11/06 04:34:48;;;;;;;4.07;3.40;;;15.60;99.90;;;16.20;53.35;102470.44;4992318;27;96878;-49
2021/11/06 04:37:14;;;;;;;6.13;3.97;;;15.60;99.90;;;16.22;53.09;102471.28;4994576;27;97278;-45
2021/11/06 04:39:40;;;;;;;4.50;3.40;;;15.60;99.90;;;16.21;53.33;102466.88;5000620;27;104620;-45
2021/11/06 04:42:07;;;;;;;3.87;3.47;;;15.60;99.90;;;16.21;52.99;102466.88;5000668;27;118225;-44
2021/11/06 04:44:34;;;;;;;4.83;3.60;;;15.60;99.90;;;16.20;53.17;102465.13;4999965;27;97270;-44
2021/11/06 04:47:00;;;;;;;5.20;3.60;;;15.60;99.90;;;16.16;53.29;102473.22;5005292;27;97633;-45
2021/11/06 04:49:25;;;;;;;5.63;3.10;;;15.50;99.90;;;16.16;53.12;102465.25;5011408;27;99944;-45
2021/11/06 04:51:51;;;;;;;3.00;2.73;;;15.50;99.90;;;16.18;53.47;102480.25;5001845;27;98193;-45
2021/11/06 04:54:18;;;;;;;4.37;3.30;;;15.50;99.90;;;16.21;53.35;102477.53;5005351;27;96796;-44
2021/11/06 04:56:44;;;;;;;5.00;3.23;;;15.60;99.90;;;16.23;53.19;102470.34;5004882;28;97125;-45
2021/11/06 04:59:10;;;;;;;5.13;3.17;;;15.70;99.90;;;16.35;52.90;102469.97;5001842;28;104306;-44
2021/11/06 05:01:36;;;;;;;4.23;3.13;;;15.90;99.90;;;16.39;52.79;102475.19;4998818;28;99108;-46
2021/11/06 05:04:01;;;;;;;3.43;3.03;;;15.90;99.90;;;16.46;52.43;102468.75;4996843;27;96441;-44
2021/11/06 05:06:30;;;;;;;4.80;3.40;;;16.00;99.90;;;16.46;52.45;102461.63;5012150;27;97483;-44
2021/11/06 05:08:56;;;;;;;3.10;2.80;;;16.00;99.90;;;16.48;52.68;102467.78;5007006;27;98758;-45
2021/11/06 05:11:22;;;;;;;3.43;3.13;;;16.00;99.90;;;16.48;52.50;102474.91;5001159;28;96834;-44
2021/11/06 05:13:48;;;;;;;6.17;4.77;;;16.00;99.90;;;16.49;52.22;102468.63;5014383;27;96897;-45
2021/11/06 05:16:13;;;;;;;4.57;3.13;;;16.00;99.40;;;16.49;52.30;102463.31;5002729;28;97639;-43
2021/11/06 05:18:39;;;;;;;3.77;3.07;;;15.90;99.90;;;16.48;52.42;102464.25;4998001;28;100085;-45
2021/11/06 05:21:05;;;;;;;4.10;3.23;;;15.90;99.90;;;16.44;52.50;102470.59;5007006;28;97114;-44
2021/11/06 05:23:31;;;;;;;5.27;3.17;;;15.90;99.90;;;16.41;52.83;102462.69;4997270;28;109178;-44
2021/11/06 05:25:57;;;;;;;3.53;2.90;;;15.80;99.90;;;16.38;52.88;102457.47;4998956;27;97130;-44
2021/11/06 05:28:23;;;;;;;3.07;2.77;;;15.70;99.90;;;16.39;52.88;102456.56;5010980;27;102343;-44
2021/11/06 05:30:49;;;;;;;4.67;3.23;;;15.80;99.90;;;16.39;52.57;102464.56;4992189;28;100089;-44
2021/11/06 05:33:15;;;;;;;6.17;3.30;;;15.80;99.90;;;16.38;52.68;102466.34;4994901;27;99372;-46
2021/11/06 05:35:41;;;;;;;4.50;3.93;;;15.80;99.90;;;16.32;52.98;102456.72;5002929;28;96808;-44
2021/11/06 05:38:07;;;;;;;3.47;2.70;;;15.60;99.70;;;16.29;53.04;102464.81;5002681;27;99298;-45
2021/11/06 05:40:33;;;;;;;3.93;3.07;;;15.60;99.90;;;16.32;52.74;102464.72;4993371;28;97211;-43
2021/11/06 05:42:59;;;;;;;3.10;2.80;;;15.60;99.90;;;16.34;53.02;102457.56;4992352;28;97604;-43
2021/11/06 05:45:25;;;;;;;3.40;2.60;;;15.70;99.90;;;16.37;52.57;102456.63;5028207;27;97566;-44
2021/11/06 05:47:51;;;;;;;3.67;2.70;;;15.80;99.90;;;16.40;52.54;102440.53;4997333;27;98797;-44
2021/11/06 05:50:17;;;;;;;3.23;2.63;;;15.90;99.90;;;16.45;52.50;102453.69;4993929;28;97507;-44
2021/11/06 05:52:44;;;;;;;5.10;3.13;;;15.90;99.90;;;16.48;52.28;102453.59;5003499;27;96953;-46
2021/11/06 05:55:14;;;;;;;4.77;3.10;;;15.90;99.90;;;16.52;52.44;102455.25;4995506;27;97103;-44
2021/11/06 05:57:41;;;;;;;4.27;2.60;;;16.00;99.90;;;16.57;52.19;102453.28;4998168;27;97206;-43
2021/11/06 06:00:12;;;;;;;2.83;2.40;;;16.10;99.90;;;16.60;51.84;102447.88;5009544;27;98336;-46
2021/11/06 06:02:38;;;;;;;3.90;2.83;;;16.10;99.90;;;16.61;51.71;102449.59;4999387;28;96810;-44
2021/11/06 06:05:06;;;;;;;3.20;2.73;;;16.20;99.90;;;16.64;51.66;102449.53;5001314;27;100698;-46
2021/11/06 06:07:32;;;;;;;3.53;2.63;;;16.30;99.90;;;16.72;51.47;102457.28;4998169;27;98750;-47
2021/11/06 06:09:58;;;;;;;3.27;2.97;;;16.40;99.90;;;16.76;51.42;102459.78;5004171;27;97446;-47
2021/11/06 06:12:23;;;;;;;5.00;3.73;;;16.50;99.60;;;16.75;51.42;102466.06;5029722;27;96792;-44
2021/11/06 06:14:49;;;;;;;3.83;3.07;;;16.40;98.20;;;16.68;51.64;102460.97;4991816;27;97013;-48
2021/11/06 06:17:15;;;;;;;3.53;2.37;;;16.30;99.50;;;16.64;51.73;102463.72;4996059;28;97020;-45
2021/11/06 06:19:41;;;;;;;4.00;2.73;;;16.20;99.90;;;16.62;51.79;102459.34;4998516;28;97143;-45
2021/11/06 06:22:06;;;;;;;2.90;2.23;;;16.10;99.90;;;16.59;51.81;102460.31;5019278;27;96815;-44
2021/11/06 06:24:32;;;;;;;3.60;2.77;;;16.10;99.90;;;16.65;51.57;102461.94;5000053;27;97056;-45
2021/11/06 06:26:58;;;;;;;2.50;2.10;;;16.20;99.90;;;16.61;51.73;102460.25;4979279;28;110324;-43
2021/11/06 06:29:24;;;;;;;3.57;2.40;;;16.20;99.40;;;16.56;51.61;102462.22;4995423;28;98214;-47
2021/11/06 06:31:50;;;;;;;2.97;2.60;;;16.00;99.90;;;16.52;51.87;102460.56;4996686;27;97483;-44
2021/11/06 06:34:15;;;;;;;2.43;2.23;;;16.00;99.90;;;16.53;51.79;102462.31;5012135;27;97059;-48
2021/11/06 06:36:41;;;;;;;3.17;2.63;;;16.00;99.90;;;16.53;51.84;102470.31;5031260;27;103259;-44
2021/11/06 06:39:07;;;;;;;4.20;2.60;;;16.00;99.90;;;16.56;51.77;102472.88;4988318;27;100213;-47
2021/11/06 06:41:33;;;;;;;3.20;2.33;;;16.10;99.90;;;16.55;51.83;102479.13;5002802;28;102129;-46
2021/11/06 06:43:59;;;;;;;2.57;2.30;;;16.10;99.90;;;16.62;51.63;102488.66;5002076;27;97366;-47
2021/11/06 06:46:24;;;;;;;3.60;2.50;;;16.20;99.80;;;16.64;51.53;102492.16;5011793;27;99058;-47
2021/11/06 06:48:50;;;;;;;4.00;2.60;;;16.30;99.90;;;16.65;51.70;102505.44;5014529;27;106646;-46
2021/11/06 06:51:17;;;;;;;2.60;2.33;;;16.30;99.50;;;16.64;51.80;102500.16;4996564;28;98168;-44
2021/11/06 06:53:43;;;;;;;2.77;2.30;;;16.20;99.90;;;16.56;52.03;102495.06;5006361;28;97185;-45
2021/11/06 06:56:09;;;;;;;4.53;2.53;;;16.10;99.80;;;16.53;52.14;102499.63;4989329;27;100323;-46
2021/11/06 06:58:35;;;;;;;3.50;2.27;;;16.00;99.90;;;16.60;51.95;102506.47;4996355;27;99095;-48
2021/11/06 07:01:01;;;;;;;3.57;2.60;;;16.10;99.90;;;16.62;51.78;102504.63;4993108;27;99929;-45
2021/11/06 07:03:27;;;;;;;3.77;2.70;;;16.20;99.00;;;16.65;51.62;102504.56;5001234;28;96950;-47
2021/11/06 07:05:53;;;;;;;3.87;2.70;;;16.20;99.90;;;16.61;51.74;102498.44;4995055;27;99983;-44
2021/11/06 07:08:21;;;;;;;2.83;1.93;;;16.10;99.90;;;16.69;51.77;102498.25;4993196;27;98746;-45
2021/11/06 07:10:47;;;;;;;3.77;2.63;;;16.20;99.90;;;16.73;51.46;102499.88;4991720;27;97237;-47
2021/11/06 07:13:19;;;;;;;3.07;2.43;;;16.30;99.90;;;16.82;51.22;102504.91;4996707;27;97171;-46
2021/11/06 07:15:45;;;;;;;3.77;2.70;;;16.50;99.90;;;16.90;50.95;102500.19;5006109;28;98643;-52
2021/11/06 07:18:10;;;;;;;2.63;2.40;;;16.60;99.60;;;16.94;50.84;102503.66;4990548;28;103858;-45
2021/11/06 07:20:36;;;;;;;3.27;2.43;;;16.70;98.20;;;16.97;50.63;102500.00;5004892;28;97212;-49
2021/11/06 07:23:02;;;;;;;2.97;2.50;;;16.70;99.60;;;16.97;50.63;102505.34;4994153;27;97078;-45
2021/11/06 07:25:28;;;;;;;2.80;2.20;;;16.70;99.70;;;16.99;50.68;102498.16;4995168;28;97707;-45
2021/11/06 07:27:54;;;;;;;4.37;2.17;;;16.70;99.80;;;17.04;50.42;102515.72;4997594;27;99961;-46
2021/11/06 07:30:21;;;;;;;3.13;2.30;;;16.80;99.50;;;17.08;50.51;102513.84;4996536;28;103629;-46
2021/11/06 07:32:48;;;;;;;2.23;2.00;;;16.90;99.10;;;17.15;50.02;102512.72;4997406;27;97157;-44
2021/11/06 07:35:14;;;;;;;2.80;2.20;;;17.00;98.90;;;17.18;50.04;102508.13;4993948;27;99462;-44
2021/11/06 07:37:40;;;;;;;2.73;2.33;;;17.00;99.00;;;17.20;49.91;102508.09;5004309;28;98017;-45
2021/11/06 07:40:08;;;;;;;2.50;2.30;;;17.00;99.10;;;17.31;49.89;102495.25;4988281;27;97452;-44
2021/11/06 07:42:42;;;;;;;2.43;2.23;;;17.20;98.90;;;17.43;49.47;102489.50;5004394;28;97263;-44
2021/11/06 07:45:12;;;;;;;2.30;2.07;;;17.30;98.70;;;17.52;49.03;102486.50;4990897;27;97697;-45
2021/11/06 07:47:39;;;;;;;2.43;1.90;;;17.50;98.40;;;17.63;49.05;102495.91;5004194;28;97294;-43
2021/11/06 07:50:07;;;;;;;2.90;2.60;;;17.60;98.10;;;17.62;48.83;102499.50;4993000;27;97261;-44
2021/11/06 07:52:33;;;;;;;3.57;3.03;;;17.60;96.20;;;17.57;48.70;102509.47;5000820;27;96862;-45
2021/11/06 07:54:59;;;;;;;4.57;2.63;;;17.50;96.60;;;17.48;49.24;102506.19;5004978;27;98004;-47
2021/11/06 07:57:25;;;;;;;2.53;1.97;;;17.30;97.70;;;17.46;48.93;102505.38;5026786;27;97092;-45
2021/11/06 07:59:51;;;;;;;2.33;2.13;;;17.20;98.50;;;17.39;49.29;102509.22;5002250;27;97238;-46
2021/11/06 08:02:16;;;;;;;3.03;2.27;;;17.10;97.90;;;17.33;49.53;102514.75;4994901;28;111821;-44
2021/11/06 08:04:42;;;;;;;3.20;2.50;;;17.00;98.60;;;17.21;49.87;102515.16;4978562;28;117699;-45
2021/11/06 08:07:08;;;;;;;3.00;2.23;;;16.80;98.70;;;17.16;50.28;102511.78;5016174;27;97427;-47
2021/11/06 08:09:34;;;;;;;3.20;2.23;;;16.70;99.70;;;17.11;50.37;102508.41;4993989;28;96793;-46
2021/11/06 08:12:00;;;;;;;3.30;2.23;;;16.70;99.40;;;17.19;50.38;102514.34;5018790;27;97396;-45
2021/11/06 08:14:26;;;;;;;4.40;2.53;;;16.80;99.60;;;17.25;49.93;102514.16;5003896;27;97545;-44
2021/11/06 08:16:56;;;;;;;3.27;2.60;;;17.00;99.10;;;17.34;49.73;102505.81;4997857;27;116198;-44
2021/11/06 08:19:23;;;;;;;3.77;2.90;;;17.20;99.00;;;17.38;49.87;102511.94;4998390;27;97007;-47
2021/11/06 08:21:51;;;;;;;2.63;2.43;;;17.20;98.80;;;17.46;49.39;102505.38;5006109;27;102491;-46
2021/11/06 08:24:19;;;;;;;3.00;2.33;;;17.30;98.40;;;17.55;49.35;102502.41;4997526;28;97779;-46
2021/11/06 08:26:46;;;;;;;2.70;2.50;;;17.40;98.40;;;17.58;48.97;102497.88;4997869;28;97568;-47
2021/11/06 08:29:12;;;;;;;3.47;2.80;;;17.50;97.70;;;17.62;49.12;102497.69;4994779;27;97054;-45
2021/11/06 08:31:39;;;;;;;2.90;2.37;;;17.50;97.90;;;17.57;49.02;102501.47;4999883;27;97425;-44
2021/11/06 08:34:05;;;;;;;2.80;2.60;;;17.40;98.00;;;17.52;49.11;102505.19;4995597;27;100219;-44
2021/11/06 08:36:31;;;;;;;3.97;2.53;;;17.30;98.40;;;17.59;49.35;102505.81;4996887;28;96787;-45
2021/11/06 08:38:57;;;;;;;2.80;2.33;;;17.40;98.70;;;17.68;49.10;102512.66;4990547;27;96698;-47
2021/11/06 08:41:23;;;;;;;2.87;2.17;;;17.50;98.20;;;17.68;49.15;102504.63;5013673;27;96749;-46
2021/11/06 08:43:48;;;;;;;6.07;4.77;;;17.50;98.10;;;17.69;48.50;102506.41;4992964;27;100440;-44
2021/11/06 08:46:14;;;;;;;3.10;2.60;;;17.50;96.90;;;17.65;48.94;102505.63;4995672;28;99228;-44
2021/11/06 08:48:40;;;;;;;3.03;2.53;;;17.50;97.40;;;17.63;49.00;102495.91;4999171;28;96867;-45
2021/11/06 08:51:06;;;;;;;10.07;6.43;;;17.40;98.10;;;17.62;48.83;102505.72;4995483;27;97297;-44
2021/11/06 08:53:32;;;;;;;2.20;2.00;;;17.40;96.70;;;17.49;49.32;102499.94;5004935;27;104528;-44
2021/11/06 08:55:58;;;;;;;3.17;2.30;;;17.10;98.80;;;17.59;49.57;102502.28;5002975;28;98931;-46
2021/11/06 08:58:24;;;;;;;3.50;2.40;;;17.30;98.60;;;17.56;49.48;102495.28;5001942;27;99607;-44
2021/11/06 09:00:51;;;;;;;2.83;2.40;;;17.30;98.60;;;17.56;49.32;102497.94;4995403;27;97021;-44
2021/11/06 09:03:24;;;;;;;3.50;2.60;;;17.30;97.50;;;17.55;49.48;102497.06;4997275;27;100212;-45
2021/11/06 09:05:53;;;;;;;5.97;5.47;;;17.30;98.40;;;17.67;49.09;102492.22;5000625;27;96759;-45
2021/11/06 09:08:30;;;;;;;4.43;4.00;;;17.50;97.60;;;17.74;47.50;102488.41;4998085;28;97469;-44
2021/11/06 09:11:02;;;;;;;2.53;2.10;;;17.60;96.00;;;17.75;48.89;102495.50;4996483;27;96950;-47
2021/11/06 09:13:28;;;;;;;3.63;3.07;;;17.60;97.60;;;17.75;48.70;102495.50;4999361;27;96843;-49
2021/11/06 09:15:54;;;;;;;9.20;7.83;;;17.70;96.40;;;17.61;48.07;102495.09;4998594;27;99745;-46
2021/11/06 09:18:20;;;;;;;6.00;4.03;;;17.40;96.50;;;17.51;49.36;102495.44;4995317;27;97146;-47
2021/11/06 09:20:46;;;;;;;4.40;3.57;;;17.20;97.40;;;17.45;49.44;102484.97;5001103;27;97540;-50
2021/11/06 09:23:13;;;;;;;2.90;2.30;;;17.10;98.80;;;17.36;49.62;102487.97;5003376;27;100530;-44
2021/11/06 09:25:39;;;;;;;2.77;2.40;;;16.90;99.00;;;17.47;49.67;102485.78;4996063;27;98391;-47
2021/11/06 09:28:05;;;;;;;2.33;2.00;;;17.10;99.10;;;17.62;49.09;102488.81;4994935;27;97023;-44
2021/11/06 09:30:30;;;;;;;2.63;2.00;;;17.40;98.40;;;17.72;48.96;102487.59;4993321;27;96949;-45
2021/11/06 09:32:56;;;;;;;2.93;2.47;;;17.70;98.00;;;17.63;48.89;102490.56;4995412;27;98079;-44
2021/11/06 09:35:22;;;;;;;3.03;2.73;;;17.50;97.50;;;17.44;49.64;102485.91;4993811;28;97238;-46
2021/11/06 09:37:49;;;;;;;3.27;2.70;;;17.10;98.50;;;17.39;49.82;102490.53;4999674;28;96979;-44
2021/11/06 09:40:16;;;;;;;4.00;2.90;;;17.00;99.10;;;17.37;49.75;102488.84;4989931;27;96938;-44
2021/11/06 09:42:44;;;;;;;2.73;1.83;;;17.00;98.30;;;17.33;49.95;102490.72;4995944;28;96827;-44
2021/11/06 09:45:12;;;;;;;5.47;4.33;;;17.00;99.10;;;17.37;49.58;102492.41;5000480;27;97965;-44
2021/11/06 09:47:43;;;;;;;5.33;4.60;;;17.10;98.10;;;17.34;49.53;102489.81;4995646;28;97405;-45
2021/11/06 09:50:12;;;;;;;3.03;2.40;;;17.00;97.80;;;17.15;49.97;102494.03;5002703;27;97332;-44
2021/11/06 09:52:38;;;;;;;5.57;4.43;;;16.80;98.70;;;17.09;49.97;102488.94;4996047;27;99002;-44
2021/11/06 09:55:05;;;;;;;5.93;5.03;;;16.70;98.50;;;16.98;47.47;102491.09;5002785;27;109341;-44
2021/11/06 09:57:31;;;;;;;7.67;6.80;;;16.60;98.30;;;16.33;45.93;102498.41;5011993;27;97040;-45
2021/11/06 09:59:57;;;;;;;9.13;6.07;;;15.90;96.60;;;16.27;47.98;102490.63;4993186;27;98093;-45
2021/11/06 10:02:24;;;;;;;5.80;4.27;;;15.70;98.60;;;16.27;52.38;102487.97;5004363;27;100524;-47
2021/11/06 10:04:51;;;;;;;6.33;4.43;;;15.60;99.90;;;16.29;52.43;102494.13;4991969;27;99717;-44
2021/11/06 10:07:24;;;;;;;5.10;2.93;;;15.70;99.90;;;16.36;52.41;102477.03;5003782;28;103218;-44